Time;durP1;ratioP1;P1;durP2;ratioP2;P2;SDS_P1;SDS_P2;PMS_P1;PMS_P2;Temp;Humidity;BMP_temperature;BMP_pressure;BME280_temperature;BME280_humidity;BME280_pressure;Samples;Min_cycle;Max_cycle;Signal;HPM_P1;HPM_P2
2023/03/31 00:00:40;;;;;;;8.10;5.77;;;;;;;;;;5096364;28;20931;-75
2023/03/31 00:03:08;;;;;;;8.13;5.40;;;;;;;;;;5096122;28;20829;-75
2023/03/31 00:05:38;;;;;;;8.63;5.33;;;;;;;;;;5095985;28;20837;-75
2023/03/31 00:08:06;;;;;;;9.97;5.50;;;;;;;;;;5096168;28;20541;-75
2023/03/31 00:10:34;;;;;;;13.50;6.87;;;;;;;;;;5096236;28;20981;-75
2023/03/31 00:13:02;;;;;;;8.80;5.50;;;;;;;;;;5096097;28;20461;-75
2023/03/31 00:15:30;;;;;;;11.20;6.20;;;;;;;;;;5095838;28;20459;-75
2023/03/31 00:17:59;;;;;;;11.63;6.73;;;;;;;;;;5096080;28;20489;-75
2023/03/31 00:20:26;;;;;;;9.57;6.17;;;;;;;;;;5095769;28;21013;-75
2023/03/31 00:22:56;;;;;;;11.97;7.40;;;;;;;;;;5096135;28;20966;-75
2023/03/31 00:25:23;;;;;;;15.40;5.47;;;;;;;;;;5096263;28;20466;-77
2023/03/31 00:27:51;;;;;;;9.07;5.43;;;;;;;;;;5096148;28;20447;-74
2023/03/31 00:30:19;;;;;;;9.63;6.27;;;;;;;;;;5096140;28;21003;-74
2023/03/31 00:32:47;;;;;;;9.03;7.30;;;;;;;;;;5096621;28;20565;-74
2023/03/31 00:35:14;;;;;;;10.13;7.00;;;;;;;;;;5096581;28;20500;-74
2023/03/31 00:37:44;;;;;;;8.00;6.10;;;;;;;;;;5096740;28;20547;-74
2023/03/31 00:40:13;;;;;;;9.90;6.27;;;;;;;;;;5096036;28;20461;-74
2023/03/31 00:42:41;;;;;;;7.50;6.30;;;;;;;;;;5095918;28;20841;-74
2023/03/31 00:45:22;;;;;;;9.30;6.70;;;;;;;;;;5096665;28;20454;-74
2023/03/31 00:47:51;;;;;;;7.43;5.73;;;;;;;;;;5097296;28;20532;-74
2023/03/31 00:50:20;;;;;;;10.90;7.13;;;;;;;;;;5097292;28;20967;-74
2023/03/31 00:52:48;;;;;;;13.70;7.30;;;;;;;;;;5096363;28;20841;-74
2023/03/31 00:55:17;;;;;;;12.87;5.93;;;;;;;;;;5096310;28;20454;-74
2023/03/31 00:57:46;;;;;;;14.33;7.07;;;;;;;;;;5096873;28;20983;-74
2023/03/31 01:00:15;;;;;;;18.83;6.40;;;;;;;;;;5096465;28;20458;-74
2023/03/31 01:02:45;;;;;;;10.73;6.67;;;;;;;;;;5096187;28;20466;-74
2023/03/31 01:05:12;;;;;;;9.60;5.70;;;;;;;;;;5095503;28;20553;-74
2023/03/31 01:07:43;;;;;;;7.70;6.37;;;;;;;;;;5095481;28;20832;-74
2023/03/31 01:10:11;;;;;;;18.47;5.77;;;;;;;;;;5095773;28;20470;-75
2023/03/31 01:12:40;;;;;;;9.13;6.43;;;;;;;;;;5096184;28;20813;-74
2023/03/31 01:15:08;;;;;;;13.57;6.57;;;;;;;;;;5096140;28;20447;-75
2023/03/31 01:17:36;;;;;;;9.07;6.87;;;;;;;;;;5095861;28;20458;-75
2023/03/31 01:20:11;;;;;;;7.30;6.00;;;;;;;;;;5096511;28;20461;-75
2023/03/31 01:23:04;;;;;;;9.00;6.40;;;;;;;;;;5095537;28;20466;-75
2023/03/31 01:25:44;;;;;;;10.57;6.03;;;;;;;;;;5080952;28;20515;-74
2023/03/31 01:28:22;;;;;;;9.40;5.87;;;;;;;;;;5095266;28;20451;-74
2023/03/31 01:30:58;;;;;;;11.80;6.13;;;;;;;;;;5095736;28;21058;-74
2023/03/31 01:33:45;;;;;;;8.00;5.30;;;;;;;;;;5095257;28;20450;-74
2023/03/31 01:36:30;;;;;;;6.97;5.00;;;;;;;;;;5095326;28;20500;-75
2023/03/31 01:39:16;;;;;;;8.40;5.30;;;;;;;;;;5084434;28;20491;-74
2023/03/31 01:41:50;;;;;;;9.83;6.20;;;;;;;;;;5094273;28;20475;-74
2023/03/31 01:44:21;;;;;;;8.63;5.83;;;;;;;;;;5094386;28;20943;-74
2023/03/31 01:46:54;;;;;;;13.60;6.90;;;;;;;;;;5094385;28;20442;-74
2023/03/31 01:49:23;;;;;;;10.30;6.40;;;;;;;;;;5094231;28;20451;-74
2023/03/31 01:51:53;;;;;;;8.07;6.30;;;;;;;;;;5094056;28;20470;-74
2023/03/31 01:54:23;;;;;;;11.20;6.70;;;;;;;;;;5093797;28;20503;-74
2023/03/31 01:56:53;;;;;;;9.47;6.10;;;;;;;;;;5094171;28;20455;-74
2023/03/31 01:59:22;;;;;;;9.00;6.40;;;;;;;;;;5094295;28;20994;-74
2023/03/31 02:01:54;;;;;;;9.80;5.23;;;;;;;;;;5094103;28;20849;-74
2023/03/31 02:04:23;;;;;;;13.90;5.50;;;;;;;;;;5093822;28;20504;-75
2023/03/31 02:06:55;;;;;;;8.47;5.37;;;;;;;;;;5093219;28;20446;-75
2023/03/31 02:09:23;;;;;;;16.00;5.23;;;;;;;;;;5093896;28;20455;-75
2023/03/31 02:11:52;;;;;;;10.77;5.37;;;;;;;;;;5093786;28;20482;-74
2023/03/31 02:14:21;;;;;;;7.37;5.60;;;;;;;;;;5093501;28;20454;-74
2023/03/31 02:16:49;;;;;;;8.83;4.63;;;;;;;;;;5093847;28;20447;-75
2023/03/31 02:19:18;;;;;;;6.87;4.80;;;;;;;;;;5093386;28;20501;-74
2023/03/31 02:21:47;;;;;;;10.50;5.00;;;;;;;;;;5093728;28;20524;-75
2023/03/31 02:24:15;;;;;;;12.90;5.53;;;;;;;;;;5093274;28;20490;-74
2023/03/31 02:26:43;;;;;;;13.50;5.83;;;;;;;;;;5093592;28;20450;-74
2023/03/31 02:29:13;;;;;;;9.07;5.07;;;;;;;;;;5093416;28;20446;-74
2023/03/31 02:31:43;;;;;;;9.73;5.60;;;;;;;;;;5093681;28;20474;-74
2023/03/31 02:34:10;;;;;;;10.60;5.30;;;;;;;;;;5093399;28;20461;-75
2023/03/31 02:36:37;;;;;;;7.40;6.10;;;;;;;;;;5093787;28;20457;-74
2023/03/31 02:39:06;;;;;;;6.03;5.00;;;;;;;;;;5093336;28;21029;-74
2023/03/31 02:41:33;;;;;;;6.60;4.60;;;;;;;;;;5093479;28;20478;-74
2023/03/31 02:44:01;;;;;;;6.87;5.23;;;;;;;;;;5093526;28;20794;-75
2023/03/31 02:46:29;;;;;;;9.87;4.63;;;;;;;;;;5093556;28;20447;-74
2023/03/31 02:48:58;;;;;;;8.23;5.50;;;;;;;;;;5093379;28;20443;-74
2023/03/31 02:51:32;;;;;;;7.63;5.23;;;;;;;;;;5093228;28;20845;-74
2023/03/31 02:54:14;;;;;;;7.67;4.80;;;;;;;;;;5093408;28;20546;-75
2023/03/31 02:56:50;;;;;;;6.97;4.90;;;;;;;;;;5090817;28;20951;-75
2023/03/31 02:59:25;;;;;;;8.00;4.60;;;;;;;;;;5093190;28;20554;-75
2023/03/31 03:01:59;;;;;;;5.77;4.93;;;;;;;;;;5093171;28;20474;-75
2023/03/31 03:04:36;;;;;;;5.93;5.23;;;;;;;;;;5092556;28;20445;-75
2023/03/31 03:07:08;;;;;;;10.07;5.27;;;;;;;;;;5093013;28;20974;-74
2023/03/31 03:09:39;;;;;;;5.30;4.70;;;;;;;;;;5093344;28;20815;-75
2023/03/31 03:12:09;;;;;;;12.50;4.87;;;;;;;;;;5093048;28;20477;-75
2023/03/31 03:14:38;;;;;;;11.43;5.43;;;;;;;;;;5092693;28;20602;-74
2023/03/31 03:17:10;;;;;;;5.17;4.47;;;;;;;;;;5092909;28;21005;-74
2023/03/31 03:19:37;;;;;;;6.33;4.90;;;;;;;;;;5092832;28;21019;-74
2023/03/31 03:22:04;;;;;;;10.73;6.40;;;;;;;;;;5092665;28;20470;-74
2023/03/31 03:24:33;;;;;;;9.17;5.50;;;;;;;;;;5092571;28;20443;-75
2023/03/31 03:27:00;;;;;;;6.73;5.80;;;;;;;;;;5093672;28;20512;-77
2023/03/31 03:29:27;;;;;;;9.07;4.80;;;;;;;;;;5093116;28;20872;-76
2023/03/31 03:31:54;;;;;;;7.07;5.07;;;;;;;;;;5092776;28;20467;-74
2023/03/31 03:34:24;;;;;;;13.80;5.40;;;;;;;;;;5093323;28;20458;-77
2023/03/31 03:36:51;;;;;;;6.87;5.50;;;;;;;;;;5092829;28;20459;-73
2023/03/31 03:39:19;;;;;;;12.23;5.90;;;;;;;;;;5092433;28;20910;-73
2023/03/31 03:41:46;;;;;;;10.97;5.50;;;;;;;;;;5092632;28;21049;-73
2023/03/31 03:44:13;;;;;;;6.13;4.77;;;;;;;;;;5092957;28;20454;-75
2023/03/31 03:46:40;;;;;;;8.10;4.57;;;;;;;;;;5092940;28;20454;-77
2023/03/31 03:49:07;;;;;;;7.10;5.80;;;;;;;;;;5093129;28;20465;-74
2023/03/31 03:51:36;;;;;;;7.83;6.37;;;;;;;;;;5092870;28;20466;-76
2023/03/31 03:54:03;;;;;;;6.00;4.90;;;;;;;;;;5092731;28;20928;-76
2023/03/31 03:56:30;;;;;;;10.20;5.07;;;;;;;;;;5092887;28;20962;-75
2023/03/31 03:58:57;;;;;;;8.40;5.73;;;;;;;;;;5092372;28;20497;-74
2023/03/31 04:01:24;;;;;;;8.53;6.53;;;;;;;;;;5092349;28;20459;-74
2023/03/31 04:03:52;;;;;;;9.57;6.43;;;;;;;;;;5092371;28;20454;-74
2023/03/31 04:06:19;;;;;;;10.27;6.70;;;;;;;;;;5091752;28;20461;-74
2023/03/31 04:08:47;;;;;;;8.33;5.53;;;;;;;;;;5092552;28;20451;-75
2023/03/31 04:11:16;;;;;;;7.10;5.53;;;;;;;;;;5092765;28;20462;-76
2023/03/31 04:13:43;;;;;;;8.60;5.43;;;;;;;;;;5093426;28;20461;-74
2023/03/31 04:16:10;;;;;;;9.90;6.60;;;;;;;;;;5094611;28;20453;-74
2023/03/31 04:18:41;;;;;;;8.93;6.53;;;;;;;;;;5097509;28;20461;-74
2023/03/31 04:21:11;;;;;;;14.63;5.93;;;;;;;;;;5097428;28;20490;-75
2023/03/31 04:23:41;;;;;;;6.87;5.73;;;;;;;;;;5097312;28;20826;-75
2023/03/31 04:26:10;;;;;;;8.80;6.13;;;;;;;;;;5098154;28;20455;-75
2023/03/31 04:28:37;;;;;;;11.20;5.43;;;;;;;;;;5097749;28;20817;-75
2023/03/31 04:31:05;;;;;;;9.87;5.80;;;;;;;;;;5097839;28;20476;-75
2023/03/31 04:33:37;;;;;;;11.13;5.70;;;;;;;;;;5099198;28;20466;-75
2023/03/31 04:36:05;;;;;;;17.90;6.57;;;;;;;;;;5099550;28;20963;-75
2023/03/31 04:38:33;;;;;;;10.93;6.10;;;;;;;;;;5101254;28;20462;-75
2023/03/31 04:41:00;;;;;;;8.13;6.33;;;;;;;;;;5100972;28;20466;-76
2023/03/31 04:43:29;;;;;;;10.00;6.53;;;;;;;;;;5100680;28;20454;-79
2023/03/31 04:45:56;;;;;;;7.83;7.00;;;;;;;;;;5099096;28;20808;-75
2023/03/31 04:48:23;;;;;;;11.73;7.47;;;;;;;;;;5097819;28;20466;-75
2023/03/31 04:50:50;;;;;;;13.60;6.90;;;;;;;;;;5100850;28;20975;-76
2023/03/31 04:53:17;;;;;;;8.23;6.57;;;;;;;;;;5098896;28;20463;-76
2023/03/31 04:55:44;;;;;;;10.20;7.43;;;;;;;;;;5099072;28;20446;-76
2023/03/31 04:58:11;;;;;;;14.63;7.43;;;;;;;;;;5099218;28;20833;-76
2023/03/31 05:00:40;;;;;;;12.07;6.50;;;;;;;;;;5099586;28;20487;-76
2023/03/31 05:03:08;;;;;;;12.80;7.47;;;;;;;;;;5096574;28;20447;-76
2023/03/31 05:05:36;;;;;;;11.53;6.70;;;;;;;;;;5099048;28;20451;-76
2023/03/31 05:08:03;;;;;;;13.40;7.83;;;;;;;;;;5099292;28;20838;-77
2023/03/31 05:10:30;;;;;;;11.03;8.70;;;;;;;;;;5096955;28;20447;-77
2023/03/31 05:12:57;;;;;;;14.57;8.70;;;;;;;;;;5094828;28;20451;-77
2023/03/31 05:15:25;;;;;;;11.33;7.60;;;;;;;;;;5094805;28;20461;-77
2023/03/31 05:17:53;;;;;;;14.50;8.80;;;;;;;;;;5095220;28;20557;-77
2023/03/31 05:20:21;;;;;;;9.97;8.87;;;;;;;;;;5094947;28;20573;-77
2023/03/31 05:22:48;;;;;;;17.13;8.93;;;;;;;;;;5094976;28;20462;-77
2023/03/31 05:25:17;;;;;;;11.67;7.77;;;;;;;;;;5095081;28;20455;-77
2023/03/31 05:27:45;;;;;;;21.53;12.80;;;;;;;;;;5096000;28;20459;-76
2023/03/31 05:30:13;;;;;;;40.97;24.87;;;;;;;;;;5097075;28;20462;-78
2023/03/31 05:32:40;;;;;;;39.13;19.83;;;;;;;;;;5097895;28;20474;-76
2023/03/31 05:35:09;;;;;;;23.93;11.53;;;;;;;;;;5097238;28;20466;-76
2023/03/31 05:37:37;;;;;;;14.70;9.87;;;;;;;;;;5096638;28;20457;-75
2023/03/31 05:40:04;;;;;;;17.30;11.27;;;;;;;;;;5095795;28;21082;-75
2023/03/31 05:42:31;;;;;;;15.93;10.97;;;;;;;;;;5094199;28;20478;-76
2023/03/31 05:44:58;;;;;;;13.87;8.90;;;;;;;;;;5094210;28;20455;-76
2023/03/31 05:47:26;;;;;;;10.50;7.97;;;;;;;;;;5094022;28;20791;-76
2023/03/31 05:49:53;;;;;;;10.40;7.90;;;;;;;;;;5094141;28;20443;-76
2023/03/31 05:52:22;;;;;;;10.70;8.70;;;;;;;;;;5093765;28;20467;-76
2023/03/31 05:54:49;;;;;;;13.97;8.37;;;;;;;;;;5094042;28;20809;-75
2023/03/31 05:57:17;;;;;;;16.80;9.23;;;;;;;;;;5094006;28;20451;-75
2023/03/31 05:59:44;;;;;;;12.20;7.77;;;;;;;;;;5093983;28;20482;-76
2023/03/31 06:02:13;;;;;;;9.97;7.53;;;;;;;;;;5093896;28;20528;-76
2023/03/31 06:04:41;;;;;;;17.23;7.80;;;;;;;;;;5093924;28;20990;-76
2023/03/31 06:07:09;;;;;;;7.30;6.60;;;;;;;;;;5093328;28;20454;-76
2023/03/31 06:09:37;;;;;;;18.93;8.13;;;;;;;;;;5093718;28;20454;-76
2023/03/31 06:12:04;;;;;;;9.43;6.30;;;;;;;;;;5093811;28;20471;-76
2023/03/31 06:14:32;;;;;;;14.03;9.97;;;;;;;;;;5093478;28;20822;-76
2023/03/31 06:16:59;;;;;;;14.20;7.80;;;;;;;;;;5093822;28;20458;-76
2023/03/31 06:19:26;;;;;;;13.97;9.27;;;;;;;;;;5093687;28;20490;-75
2023/03/31 06:21:53;;;;;;;14.33;8.53;;;;;;;;;;5093503;28;20470;-75
2023/03/31 06:24:20;;;;;;;15.83;10.80;;;;;;;;;;5093243;28;20450;-75
2023/03/31 06:26:49;;;;;;;13.87;8.70;;;;;;;;;;5093563;28;20821;-75
2023/03/31 06:29:16;;;;;;;12.03;8.50;;;;;;;;;;5093459;28;20446;-75
2023/03/31 06:31:43;;;;;;;12.20;7.43;;;;;;;;;;5093511;28;20846;-75
2023/03/31 06:34:10;;;;;;;14.17;7.10;;;;;;;;;;5093227;28;20450;-75
2023/03/31 06:36:37;;;;;;;9.20;6.37;;;;;;;;;;5093467;28;20817;-75
2023/03/31 06:39:05;;;;;;;8.77;7.67;;;;;;;;;;5092471;28;20463;-75
2023/03/31 06:41:32;;;;;;;13.93;8.67;;;;;;;;;;5093029;28;20486;-75
2023/03/31 06:44:00;;;;;;;22.03;12.93;;;;;;;;;;5093744;28;20513;-76
2023/03/31 06:46:27;;;;;;;21.63;12.33;;;;;;;;;;5093124;28;20466;-76
2023/03/31 06:48:55;;;;;;;18.40;12.07;;;;;;;;;;5093513;28;20457;-76
2023/03/31 06:51:22;;;;;;;20.50;12.23;;;;;;;;;;5092984;28;20471;-76
2023/03/31 06:53:49;;;;;;;15.87;11.67;;;;;;;;;;5092904;28;20442;-76
2023/03/31 06:56:16;;;;;;;15.80;10.37;;;;;;;;;;5093051;28;20810;-76
2023/03/31 06:58:43;;;;;;;33.77;20.57;;;;;;;;;;5093201;28;20450;-75
2023/03/31 07:01:12;;;;;;;48.40;23.40;;;;;;;;;;5092846;28;21003;-75
2023/03/31 07:03:39;;;;;;;47.10;25.37;;;;;;;;;;5092902;28;20451;-75
2023/03/31 07:06:06;;;;;;;51.70;29.83;;;;;;;;;;5092787;28;20450;-75
2023/03/31 07:08:33;;;;;;;20.47;12.00;;;;;;;;;;5092971;28;20457;-75
2023/03/31 07:11:01;;;;;;;11.70;9.20;;;;;;;;;;5092889;28;20979;-75
2023/03/31 07:13:28;;;;;;;14.77;7.30;;;;;;;;;;5092662;28;20796;-75
2023/03/31 07:15:56;;;;;;;8.80;7.13;;;;;;;;;;5092932;28;20461;-75
2023/03/31 07:18:30;;;;;;;10.17;7.07;;;;;;;;;;5092914;28;20455;-75
2023/03/31 07:20:58;;;;;;;13.90;7.07;;;;;;;;;;5092982;28;20518;-75
2023/03/31 07:23:25;;;;;;;9.30;6.00;;;;;;;;;;5092938;28;20462;-75
2023/03/31 07:25:52;;;;;;;8.30;6.33;;;;;;;;;;5092755;28;20461;-75
2023/03/31 07:28:20;;;;;;;10.20;6.10;;;;;;;;;;5092597;28;20455;-75
2023/03/31 07:30:47;;;;;;;8.67;6.43;;;;;;;;;;5092671;28;20536;-75
2023/03/31 07:33:14;;;;;;;6.50;5.87;;;;;;;;;;5092738;28;20944;-75
2023/03/31 07:35:42;;;;;;;7.00;6.10;;;;;;;;;;5092598;28;20462;-76
2023/03/31 07:38:10;;;;;;;9.03;5.13;;;;;;;;;;5092573;28;20459;-75
2023/03/31 07:40:37;;;;;;;13.60;5.63;;;;;;;;;;5092838;28;20849;-76
2023/03/31 07:43:04;;;;;;;9.03;4.60;;;;;;;;;;5092900;28;20447;-78
2023/03/31 07:45:32;;;;;;;6.47;4.40;;;;;;;;;;5092725;28;20458;-78
2023/03/31 07:47:59;;;;;;;5.57;4.70;;;;;;;;;;5091109;28;20970;-78
2023/03/31 07:50:26;;;;;;;6.57;4.17;;;;;;;;;;5089125;28;20445;-78
2023/03/31 07:52:55;;;;;;;5.53;4.87;;;;;;;;;;5095207;28;20441;-78
2023/03/31 07:55:22;;;;;;;6.97;4.70;;;;;;;;;;5095265;28;20533;-78
2023/03/31 07:57:50;;;;;;;5.20;3.90;;;;;;;;;;5094786;28;20451;-77
2023/03/31 08:00:18;;;;;;;7.30;5.43;;;;;;;;;;5095331;28;20478;-77
2023/03/31 08:02:45;;;;;;;5.73;5.13;;;;;;;;;;5095129;28;21003;-77
2023/03/31 08:05:13;;;;;;;10.00;5.40;;;;;;;;;;5095142;28;20458;-78
2023/03/31 08:07:41;;;;;;;6.67;5.03;;;;;;;;;;5094981;28;20445;-77
2023/03/31 08:10:11;;;;;;;5.60;5.10;;;;;;;;;;5095114;28;20441;-77
2023/03/31 08:12:39;;;;;;;12.80;5.40;;;;;;;;;;5094993;28;20986;-77
2023/03/31 08:15:06;;;;;;;7.70;5.23;;;;;;;;;;5094178;28;20469;-77
2023/03/31 08:17:33;;;;;;;8.47;5.50;;;;;;;;;;5095015;28;20455;-77
2023/03/31 08:20:00;;;;;;;12.07;5.53;;;;;;;;;;5094867;28;20497;-77
2023/03/31 08:22:28;;;;;;;6.53;5.53;;;;;;;;;;5095190;28;20971;-77
2023/03/31 08:24:55;;;;;;;8.17;4.90;;;;;;;;;;5094986;28;20447;-77
2023/03/31 08:27:24;;;;;;;5.60;4.83;;;;;;;;;;5094670;28;20904;-77
2023/03/31 08:29:52;;;;;;;9.70;6.07;;;;;;;;;;5094443;28;20500;-77
2023/03/31 08:32:19;;;;;;;13.90;5.37;;;;;;;;;;5094858;28;20843;-77
2023/03/31 08:34:49;;;;;;;8.50;5.63;;;;;;;;;;5094860;28;20459;-77
2023/03/31 08:37:16;;;;;;;8.90;5.67;;;;;;;;;;5094903;28;20492;-76
2023/03/31 08:39:43;;;;;;;10.43;6.33;;;;;;;;;;5094238;28;20502;-75
2023/03/31 08:42:15;;;;;;;16.73;8.50;;;;;;;;;;5094149;28;21010;-75
2023/03/31 08:44:46;;;;;;;9.57;7.00;;;;;;;;;;5094231;28;20504;-75
2023/03/31 08:47:16;;;;;;;9.33;6.13;;;;;;;;;;5094106;28;20446;-75
2023/03/31 08:49:46;;;;;;;7.60;6.03;;;;;;;;;;5094429;28;20462;-75
2023/03/31 08:52:15;;;;;;;7.00;5.60;;;;;;;;;;5093832;28;20838;-75
2023/03/31 08:54:45;;;;;;;6.53;5.50;;;;;;;;;;5093806;28;21130;-75
2023/03/31 08:57:15;;;;;;;7.17;6.43;;;;;;;;;;5093678;28;20561;-75
2023/03/31 08:59:45;;;;;;;10.13;5.83;;;;;;;;;;5093967;28;20462;-75
2023/03/31 09:02:17;;;;;;;6.73;5.30;;;;;;;;;;5092721;28;20487;-75
2023/03/31 09:04:50;;;;;;;10.67;6.70;;;;;;;;;;5093630;28;20447;-76
2023/03/31 09:07:20;;;;;;;11.47;6.60;;;;;;;;;;5093327;28;20451;-76
2023/03/31 09:09:51;;;;;;;8.10;6.03;;;;;;;;;;5093968;28;20513;-75
2023/03/31 09:12:21;;;;;;;8.93;6.50;;;;;;;;;;5093289;28;20944;-75
2023/03/31 09:14:52;;;;;;;9.10;6.80;;;;;;;;;;5093609;28;20455;-74
2023/03/31 09:17:22;;;;;;;8.80;5.30;;;;;;;;;;5093494;28;20455;-75
2023/03/31 09:19:52;;;;;;;5.60;4.03;;;;;;;;;;5093245;28;20520;-75
2023/03/31 09:22:20;;;;;;;6.87;5.40;;;;;;;;;;5093012;28;20556;-76
2023/03/31 09:24:55;;;;;;;9.90;5.83;;;;;;;;;;5093469;28;20447;-76
2023/03/31 09:27:23;;;;;;;6.90;4.80;;;;;;;;;;5093378;28;20768;-75
2023/03/31 09:29:52;;;;;;;5.27;4.77;;;;;;;;;;5093445;28;20458;-74
2023/03/31 09:32:21;;;;;;;7.80;4.60;;;;;;;;;;5093134;28;20478;-74
2023/03/31 09:34:51;;;;;;;13.33;5.60;;;;;;;;;;5093074;28;20450;-74
2023/03/31 09:37:18;;;;;;;6.10;4.70;;;;;;;;;;5093188;28;20451;-74
2023/03/31 09:39:45;;;;;;;8.53;6.37;;;;;;;;;;5093216;28;20450;-75
2023/03/31 09:42:13;;;;;;;6.17;4.87;;;;;;;;;;5092684;28;20486;-74
2023/03/31 09:44:41;;;;;;;13.13;6.93;;;;;;;;;;5092901;28;20538;-74
2023/03/31 09:47:14;;;;;;;8.33;7.63;;;;;;;;;;5092878;28;20465;-74
2023/03/31 09:49:43;;;;;;;8.23;6.50;;;;;;;;;;5093086;28;20458;-74
2023/03/31 09:52:14;;;;;;;6.70;5.80;;;;;;;;;;5092894;28;20482;-74
2023/03/31 09:54:44;;;;;;;9.73;5.60;;;;;;;;;;5092831;28;20450;-74
2023/03/31 09:57:15;;;;;;;8.17;5.97;;;;;;;;;;5093403;28;20454;-74
2023/03/31 09:59:44;;;;;;;11.13;7.30;;;;;;;;;;5093684;28;20451;-74
2023/03/31 10:02:25;;;;;;;8.03;6.20;;;;;;;;;;5093676;28;20558;-74
2023/03/31 10:04:53;;;;;;;10.60;5.83;;;;;;;;;;5093972;28;20454;-74
2023/03/31 10:07:21;;;;;;;7.87;5.70;;;;;;;;;;5093336;28;20454;-74
2023/03/31 10:09:49;;;;;;;7.43;5.53;;;;;;;;;;5093628;28;20489;-73
2023/03/31 10:12:19;;;;;;;9.20;5.83;;;;;;;;;;5093487;28;20474;-74
2023/03/31 10:14:46;;;;;;;9.80;7.03;;;;;;;;;;5093484;28;20794;-73
2023/03/31 10:17:15;;;;;;;7.57;6.40;;;;;;;;;;5093559;28;20451;-74
2023/03/31 10:19:50;;;;;;;8.03;7.20;;;;;;;;;;5093577;28;20807;-74
2023/03/31 10:22:17;;;;;;;9.03;6.00;;;;;;;;;;5093302;28;20580;-74
2023/03/31 10:24:45;;;;;;;8.53;5.93;;;;;;;;;;5093143;28;20473;-74
2023/03/31 10:27:19;;;;;;;6.33;5.73;;;;;;;;;;5093380;28;20455;-75
2023/03/31 10:29:46;;;;;;;7.60;6.13;;;;;;;;;;5093530;28;20987;-75
2023/03/31 10:32:18;;;;;;;6.77;6.17;;;;;;;;;;5093300;28;20470;-75
2023/03/31 10:34:46;;;;;;;5.73;4.63;;;;;;;;;;5093332;28;20472;-74
2023/03/31 10:37:17;;;;;;;7.70;5.30;;;;;;;;;;5093231;28;20446;-74
2023/03/31 10:39:46;;;;;;;6.50;4.70;;;;;;;;;;5093392;28;20459;-75
2023/03/31 10:42:19;;;;;;;11.40;4.97;;;;;;;;;;5093122;28;20495;-75
2023/03/31 10:44:47;;;;;;;9.67;5.13;;;;;;;;;;5093106;28;20525;-75
2023/03/31 10:47:19;;;;;;;6.70;4.83;;;;;;;;;;5093228;28;20819;-75
2023/03/31 10:49:48;;;;;;;6.70;5.20;;;;;;;;;;5093524;28;20541;-74
2023/03/31 10:52:19;;;;;;;6.17;4.93;;;;;;;;;;5092980;28;20472;-75
2023/03/31 10:54:50;;;;;;;5.23;4.73;;;;;;;;;;5093081;28;20792;-74
2023/03/31 10:57:18;;;;;;;8.40;4.77;;;;;;;;;;5093164;28;20446;-75
2023/03/31 10:59:53;;;;;;;7.13;5.47;;;;;;;;;;5092975;28;20454;-75
2023/03/31 11:02:32;;;;;;;5.97;4.83;;;;;;;;;;5092839;28;20862;-75
2023/03/31 11:05:05;;;;;;;5.30;4.80;;;;;;;;;;5093079;28;21014;-74
2023/03/31 11:07:40;;;;;;;7.33;5.33;;;;;;;;;;5092519;28;20450;-74
2023/03/31 11:10:19;;;;;;;5.83;5.30;;;;;;;;;;5093007;28;20450;-75
2023/03/31 11:12:50;;;;;;;7.80;4.93;;;;;;;;;;5093093;28;20477;-75
2023/03/31 11:15:21;;;;;;;9.47;5.90;;;;;;;;;;5093037;28;20458;-74
2023/03/31 11:17:55;;;;;;;12.47;6.20;;;;;;;;;;5092877;28;20463;-74
2023/03/31 11:20:29;;;;;;;8.90;4.40;;;;;;;;;;5093011;28;20466;-74
2023/03/31 11:23:01;;;;;;;6.63;4.67;;;;;;;;;;5092765;28;20490;-74
2023/03/31 11:25:35;;;;;;;9.10;3.80;;;;;;;;;;5094090;28;20451;-74
2023/03/31 11:28:10;;;;;;;5.00;4.10;;;;;;;;;;5096690;28;20450;-74
2023/03/31 11:30:38;;;;;;;4.20;3.80;;;;;;;;;;5097016;28;20876;-75
2023/03/31 11:33:23;;;;;;;4.10;3.70;;;;;;;;;;5096727;28;20459;-75
2023/03/31 11:35:58;;;;;;;4.47;3.67;;;;;;;;;;5096628;28;20959;-75
2023/03/31 11:38:41;;;;;;;4.77;3.73;;;;;;;;;;5096595;28;20461;-74
2023/03/31 11:41:11;;;;;;;5.40;3.33;;;;;;;;;;5096557;28;20868;-74
2023/03/31 11:43:40;;;;;;;6.27;3.60;;;;;;;;;;5096588;28;20458;-74
2023/03/31 11:46:11;;;;;;;4.47;4.07;;;;;;;;;;5094178;28;20915;-74
2023/03/31 11:48:41;;;;;;;4.03;3.27;;;;;;;;;;5095484;28;20523;-74
2023/03/31 11:51:12;;;;;;;6.80;3.30;;;;;;;;;;5095427;28;20478;-74
2023/03/31 11:53:42;;;;;;;9.60;4.10;;;;;;;;;;5095043;28;20948;-74
2023/03/31 11:56:10;;;;;;;5.73;3.60;;;;;;;;;;5095074;28;20451;-74
2023/03/31 11:58:40;;;;;;;4.30;3.87;;;;;;;;;;5095049;28;20540;-74
2023/03/31 12:01:11;;;;;;;8.10;3.97;;;;;;;;;;5094996;28;20474;-75
2023/03/31 12:03:42;;;;;;;4.33;3.33;;;;;;;;;;5095022;28;20462;-74
2023/03/31 12:06:15;;;;;;;4.13;3.73;;;;;;;;;;5094680;28;20451;-74
2023/03/31 12:08:48;;;;;;;6.30;4.00;;;;;;;;;;5094648;28;21055;-74
2023/03/31 12:11:18;;;;;;;5.47;4.30;;;;;;;;;;5094727;28;20467;-74
2023/03/31 12:13:48;;;;;;;6.20;5.07;;;;;;;;;;5094758;28;20943;-74
2023/03/31 12:16:17;;;;;;;7.17;4.90;;;;;;;;;;5094679;28;20813;-74
2023/03/31 12:18:47;;;;;;;4.80;4.10;;;;;;;;;;5095873;28;20477;-75
2023/03/31 12:21:14;;;;;;;5.70;5.00;;;;;;;;;;5095687;28;20848;-75
2023/03/31 12:23:44;;;;;;;8.27;4.93;;;;;;;;;;5095533;28;20455;-76
2023/03/31 12:26:18;;;;;;;7.17;5.10;;;;;;;;;;5095709;28;20447;-76
2023/03/31 12:28:47;;;;;;;2.93;2.30;;;;;;;;;;5094885;28;20445;-75
2023/03/31 12:31:18;;;;;;;3.43;2.73;;;;;;;;;;5094765;28;20558;-77
2023/03/31 12:33:47;;;;;;;2.70;1.90;;;;;;;;;;5094483;28;20447;-77
2023/03/31 12:36:23;;;;;;;2.07;1.67;;;;;;;;;;5093589;28;20550;-76
2023/03/31 12:38:55;;;;;;;4.73;2.20;;;;;;;;;;5094392;28;20458;-76
2023/03/31 12:41:26;;;;;;;9.13;5.00;;;;;;;;;;5094720;28;20490;-75
2023/03/31 12:44:06;;;;;;;3.53;3.23;;;;;;;;;;5094619;28;20454;-75
2023/03/31 12:46:41;;;;;;;5.37;3.00;;;;;;;;;;5094527;28;20533;-75
2023/03/31 12:49:13;;;;;;;2.73;2.27;;;;;;;;;;5094325;28;20460;-75
2023/03/31 12:51:47;;;;;;;6.20;3.00;;;;;;;;;;5094707;28;20767;-75
2023/03/31 12:54:20;;;;;;;5.97;3.20;;;;;;;;;;5094202;28;20568;-75
2023/03/31 12:57:17;;;;;;;3.13;2.70;;;;;;;;;;5095846;28;20455;-76
2023/03/31 12:59:46;;;;;;;3.33;3.03;;;;;;;;;;5095987;28;20455;-77
2023/03/31 13:02:22;;;;;;;4.80;3.27;;;;;;;;;;5095266;28;20508;-76
2023/03/31 13:04:50;;;;;;;3.70;2.93;;;;;;;;;;5095293;28;20500;-76
2023/03/31 13:07:32;;;;;;;11.47;3.90;;;;;;;;;;5095522;28;20455;-76
2023/03/31 13:10:00;;;;;;;5.70;3.03;;;;;;;;;;5092896;28;20847;-75
2023/03/31 13:12:31;;;;;;;4.90;3.03;;;;;;;;;;5094871;28;20462;-75
2023/03/31 13:15:04;;;;;;;4.43;3.30;;;;;;;;;;5095236;28;20453;-75
2023/03/31 13:17:33;;;;;;;6.40;3.10;;;;;;;;;;5094803;28;20453;-75
2023/03/31 13:20:16;;;;;;;3.63;2.53;;;;;;;;;;5094844;28;20458;-75
2023/03/31 13:22:46;;;;;;;4.73;2.80;;;;;;;;;;5095456;28;20502;-75
2023/03/31 13:25:35;;;;;;;3.60;2.50;;;;;;;;;;5094846;28;20855;-75
2023/03/31 13:28:09;;;;;;;5.13;3.80;;;;;;;;;;5095296;28;20807;-75
2023/03/31 13:30:47;;;;;;;6.27;2.97;;;;;;;;;;5095119;28;20461;-75
2023/03/31 13:33:15;;;;;;;4.27;2.50;;;;;;;;;;5095044;28;20489;-75
2023/03/31 13:35:47;;;;;;;8.10;3.10;;;;;;;;;;5094740;28;20494;-75
2023/03/31 13:38:22;;;;;;;4.50;3.53;;;;;;;;;;5094792;28;20466;-75
2023/03/31 13:40:55;;;;;;;3.53;3.23;;;;;;;;;;5094874;28;20474;-75
2023/03/31 13:43:43;;;;;;;4.20;3.23;;;;;;;;;;5094656;28;20487;-75
2023/03/31 13:46:31;;;;;;;3.97;3.03;;;;;;;;;;5069069;28;20959;-75
2023/03/31 13:49:03;;;;;;;3.87;3.20;;;;;;;;;;5094003;28;20434;-75
2023/03/31 13:51:38;;;;;;;4.17;3.17;;;;;;;;;;5093391;28;20458;-75
2023/03/31 13:54:20;;;;;;;7.60;3.60;;;;;;;;;;5092982;28;20456;-75
2023/03/31 13:57:13;;;;;;;4.60;3.27;;;;;;;;;;5093344;28;20459;-75
2023/03/31 14:00:00;;;;;;;4.20;3.30;;;;;;;;;;5092824;28;20447;-74
2023/03/31 14:02:43;;;;;;;4.20;3.13;;;;;;;;;;5092727;28;20501;-76
2023/03/31 14:05:19;;;;;;;3.07;2.27;;;;;;;;;;5092425;28;20469;-75
2023/03/31 14:07:48;;;;;;;5.10;4.53;;;;;;;;;;5092331;28;20886;-75
2023/03/31 14:10:27;;;;;;;8.40;3.40;;;;;;;;;;5092661;28;20459;-75
2023/03/31 14:13:04;;;;;;;3.47;2.43;;;;;;;;;;5092592;28;20507;-75
2023/03/31 14:15:32;;;;;;;5.27;4.10;;;;;;;;;;5092623;28;20830;-75
2023/03/31 14:18:00;;;;;;;5.00;3.67;;;;;;;;;;5092512;28;20454;-75
2023/03/31 14:20:32;;;;;;;4.87;2.80;;;;;;;;;;5092943;28;20451;-75
2023/03/31 14:23:05;;;;;;;3.40;2.67;;;;;;;;;;5092528;28;20479;-75
2023/03/31 14:25:41;;;;;;;7.30;3.80;;;;;;;;;;5092764;28;20466;-75
2023/03/31 14:28:18;;;;;;;4.33;2.60;;;;;;;;;;5092935;28;20814;-75
2023/03/31 14:30:51;;;;;;;5.80;3.10;;;;;;;;;;5093025;28;20458;-75
2023/03/31 14:33:26;;;;;;;3.13;2.60;;;;;;;;;;5092344;28;20859;-75
2023/03/31 14:35:56;;;;;;;7.60;4.33;;;;;;;;;;5092584;28;20454;-75
2023/03/31 14:38:24;;;;;;;2.67;2.17;;;;;;;;;;5092713;28;20955;-75
2023/03/31 14:40:55;;;;;;;5.77;3.83;;;;;;;;;;5093005;28;20895;-75
2023/03/31 14:43:23;;;;;;;4.23;2.17;;;;;;;;;;5092818;28;20596;-75
2023/03/31 14:45:57;;;;;;;4.53;2.87;;;;;;;;;;5093162;28;20917;-75
2023/03/31 14:48:27;;;;;;;3.23;2.23;;;;;;;;;;5092848;28;20468;-75
2023/03/31 14:50:57;;;;;;;3.57;2.27;;;;;;;;;;5093157;28;20891;-76
2023/03/31 14:53:25;;;;;;;7.67;3.67;;;;;;;;;;5092956;28;20765;-76
2023/03/31 14:55:54;;;;;;;5.43;3.20;;;;;;;;;;5093230;28;20447;-77